Rocky Ridge, Missouri
Current Conditions -  °F | °C
As of 4:35 PM on Monday 24 Nov 2014 (Local Time) from KSAR Reporting Station
Clear Clear  
Wind Chill: 37°   Ceiling: Unl
Heat Index: 41°   Visibility: 10mi
Dew Point: 30°   Wind: 6mph
Humidity: 65%   Direction: 290°WNW
Pressure: 29.86"   Gusts: NA
Location:  37.9762°N, 90.0499°W
Report Text: KSAR 242235Z AUTO 29005KT 10SM CLR 05/M01 A2986 RMK AO2 T00511010
Loading
Personal Weather Stations






























Interactive Weather Map New forecast layout! Learn more

10-Day Weather Forecast

Advertisements
Track Severe Weather on mobile